createdAt,value
2022-12-17T00:02:00.836Z,-2.30
2022-12-17T00:05:06.556Z,-2.17
2022-12-17T00:08:16.771Z,-2.40
2022-12-17T00:11:17.248Z,-2.12
2022-12-17T00:14:21.433Z,-2.18
2022-12-17T00:17:26.142Z,-2.06
2022-12-17T00:20:31.650Z,-2.00
2022-12-17T00:23:36.044Z,-2.23
2022-12-17T00:26:40.232Z,-2.09
2022-12-17T00:29:44.438Z,-2.22
2022-12-17T00:32:48.524Z,-2.23
2022-12-17T00:35:54.103Z,-2.13
2022-12-17T00:39:01.375Z,-2.18
2022-12-17T00:42:05.481Z,-2.26
2022-12-17T00:45:09.752Z,-2.09
2022-12-17T00:48:13.921Z,-2.17
2022-12-17T00:51:19.415Z,-2.13
2022-12-17T00:54:23.448Z,-2.26
2022-12-17T00:57:27.468Z,-2.26
2022-12-17T01:00:32.325Z,-2.21
2022-12-17T01:03:37.728Z,-2.08
2022-12-17T01:06:45.351Z,-1.93
2022-12-17T01:09:50.332Z,-1.75
2022-12-17T01:12:54.181Z,-1.78
2022-12-17T01:16:00.430Z,-1.81
2022-12-17T01:19:04.460Z,-1.97
2022-12-17T01:22:15.376Z,-2.17
2022-12-17T01:25:19.608Z,-2.06
2022-12-17T01:28:23.714Z,-2.00
2022-12-17T01:31:34.355Z,-2.45
2022-12-17T01:34:39.215Z,-2.05
2022-12-17T01:37:44.669Z,-2.01
2022-12-17T01:40:48.998Z,-1.93
2022-12-17T01:43:56.157Z,-1.90
2022-12-17T01:47:08.714Z,-1.98
2022-12-17T01:50:21.314Z,-2.12
2022-12-17T01:53:28.172Z,-2.09
2022-12-17T01:56:33.028Z,-2.13
2022-12-17T01:59:43.935Z,-1.91
2022-12-17T02:02:48.232Z,-1.89
2022-12-17T02:06:00.592Z,-1.85
2022-12-17T02:09:16.794Z,-1.86
2022-12-17T02:12:29.967Z,-2.04
2022-12-17T02:15:39.919Z,-1.90
2022-12-17T02:18:49.216Z,-1.85
2022-12-17T02:21:58.232Z,-2.01
2022-12-17T02:25:12.351Z,-2.02
2022-12-17T02:28:18.159Z,-2.06
2022-12-17T02:31:22.852Z,-2.13
2022-12-17T02:34:27.493Z,-2.07
2022-12-17T02:37:33.117Z,-2.20
2022-12-17T02:40:39.331Z,-1.94
2022-12-17T02:43:46.780Z,-1.91
2022-12-17T02:46:52.545Z,-2.06
2022-12-17T02:49:58.615Z,-2.14
2022-12-17T02:53:01.646Z,-2.09
2022-12-17T02:56:05.866Z,-2.11
2022-12-17T02:59:13.832Z,-2.11
2022-12-17T03:02:18.308Z,-2.02
2022-12-17T03:05:43.887Z,-2.14
2022-12-17T03:08:46.462Z,-2.11
2022-12-17T03:11:50.675Z,-2.43
2022-12-17T03:14:56.099Z,-2.35
2022-12-17T03:18:00.164Z,-2.43
2022-12-17T03:21:04.149Z,-2.34
2022-12-17T03:24:08.320Z,-2.15
2022-12-17T03:27:12.435Z,-2.24
2022-12-17T03:30:18.484Z,-2.24
2022-12-17T03:33:22.696Z,-2.41
2022-12-17T03:36:27.297Z,-2.29
2022-12-17T03:39:31.348Z,-2.29
2022-12-17T03:42:35.444Z,-2.36
2022-12-17T03:45:40.891Z,-2.39
2022-12-17T03:48:45.246Z,-2.50
2022-12-17T03:51:49.515Z,-2.47
2022-12-17T03:54:53.525Z,-2.43
2022-12-17T03:57:57.529Z,-2.37
2022-12-17T04:01:03.134Z,-2.40
2022-12-17T04:04:07.745Z,-2.40
2022-12-17T04:07:11.771Z,-2.46
2022-12-17T04:10:15.923Z,-2.60
2022-12-17T04:13:20.199Z,-2.78
2022-12-17T04:16:26.095Z,-2.68
2022-12-17T04:19:30.190Z,-2.71
2022-12-17T04:22:34.471Z,-2.68
2022-12-17T04:25:38.551Z,-2.72
2022-12-17T04:28:42.706Z,-2.58
2022-12-17T04:31:47.839Z,-2.59
2022-12-17T04:34:51.878Z,-2.55
2022-12-17T04:37:56.107Z,-2.73
2022-12-17T04:41:00.298Z,-2.72
2022-12-17T04:44:04.454Z,-2.73
2022-12-17T04:47:10.112Z,-2.65
2022-12-17T04:50:14.311Z,-2.78
2022-12-17T04:53:19.424Z,-2.90
2022-12-17T04:56:23.988Z,-2.74
2022-12-17T04:59:27.985Z,-2.81
2022-12-17T05:02:36.080Z,-2.69
2022-12-17T05:05:43.428Z,-2.72
2022-12-17T05:08:47.673Z,-2.79
2022-12-17T05:11:52.620Z,-2.64
2022-12-17T05:14:56.860Z,-2.84
2022-12-17T05:18:02.928Z,-2.88
2022-12-17T05:21:18.485Z,-2.80
2022-12-17T05:24:23.176Z,-2.76
2022-12-17T05:27:27.785Z,-2.71
2022-12-17T05:30:31.890Z,-2.87
2022-12-17T05:33:36.273Z,-3.04
2022-12-17T05:36:42.552Z,-2.95
2022-12-17T05:39:46.789Z,-2.80
2022-12-17T05:42:50.961Z,-2.83
2022-12-17T05:45:57.199Z,-2.92
2022-12-17T05:49:01.270Z,-2.89
2022-12-17T05:52:07.421Z,-2.85
2022-12-17T05:55:11.532Z,-2.82
2022-12-17T05:58:21.071Z,-2.87
2022-12-17T06:01:25.883Z,-2.90
2022-12-17T06:04:30.351Z,-3.03
2022-12-17T06:07:36.163Z,-3.14
2022-12-17T06:10:40.041Z,-2.97
2022-12-17T06:13:44.193Z,-3.06
2022-12-17T06:16:48.545Z,-3.05
2022-12-17T06:19:52.729Z,-3.24
2022-12-17T06:22:57.929Z,-2.89
2022-12-17T06:26:01.849Z,-2.85
2022-12-17T06:29:17.588Z,-2.88
2022-12-17T06:32:21.867Z,-3.12
2022-12-17T06:35:27.031Z,-2.99
2022-12-17T06:38:32.548Z,-2.94
2022-12-17T06:41:36.506Z,-2.91
2022-12-17T06:44:40.745Z,-2.82
2022-12-17T06:47:44.820Z,-2.95
2022-12-17T06:50:48.922Z,-2.85
2022-12-17T06:53:54.494Z,-2.87
2022-12-17T06:56:58.671Z,-3.11
2022-12-17T07:00:02.922Z,-2.81
2022-12-17T07:03:13.027Z,-3.11
2022-12-17T07:06:19.654Z,-3.22
2022-12-17T07:09:25.183Z,-3.09
2022-12-17T07:12:29.462Z,-3.02
2022-12-17T07:15:33.609Z,-2.87
2022-12-17T07:18:37.763Z,-3.10
2022-12-17T07:21:42.344Z,-2.81
2022-12-17T07:24:48.288Z,-2.77
2022-12-17T07:27:52.545Z,-2.90
2022-12-17T07:30:56.599Z,-2.96
2022-12-17T07:34:00.748Z,-2.91
2022-12-17T07:37:01.521Z,-3.10
2022-12-17T07:40:06.981Z,-3.02
2022-12-17T07:43:14.392Z,-3.11
2022-12-17T07:46:18.648Z,-3.23
2022-12-17T07:49:25.977Z,-3.11
2022-12-17T07:52:30.509Z,-3.00
2022-12-17T07:55:36.384Z,-2.98
2022-12-17T07:58:51.967Z,-3.25
2022-12-17T08:02:11.145Z,-3.23
2022-12-17T08:05:15.555Z,-3.01
2022-12-17T08:08:26.454Z,-2.93
2022-12-17T08:11:31.971Z,-2.88
2022-12-17T08:14:36.068Z,-2.82
2022-12-17T08:17:40.147Z,-3.10
2022-12-17T08:20:44.348Z,-2.81
2022-12-17T08:23:48.552Z,-2.86
2022-12-17T08:26:53.937Z,-2.91
2022-12-17T08:29:58.015Z,-2.92
2022-12-17T08:33:02.241Z,-2.93
2022-12-17T08:36:10.215Z,-2.76
2022-12-17T08:39:14.468Z,-2.73
2022-12-17T08:42:19.952Z,-2.73
2022-12-17T08:45:24.973Z,-2.78
2022-12-17T08:48:29.698Z,-3.03
2022-12-17T08:51:33.723Z,-3.00
2022-12-17T08:54:37.746Z,-2.98
2022-12-17T08:57:43.190Z,-2.83
2022-12-17T09:00:47.286Z,-2.86
2022-12-17T09:03:51.466Z,-2.87
2022-12-17T09:06:55.581Z,-2.84
2022-12-17T09:10:00.378Z,-2.97
2022-12-17T09:13:05.966Z,-2.86
2022-12-17T09:16:11.369Z,-2.74
2022-12-17T09:19:15.546Z,-2.87
2022-12-17T09:22:19.734Z,-2.80
2022-12-17T09:25:24.262Z,-2.96
2022-12-17T09:28:29.886Z,-2.98
2022-12-17T09:31:37.328Z,-2.67
2022-12-17T09:34:42.213Z,-2.69
2022-12-17T09:37:46.298Z,-2.73
2022-12-17T09:40:50.974Z,-2.74
2022-12-17T09:44:05.544Z,-2.83
2022-12-17T09:47:15.671Z,-2.67
2022-12-17T09:50:37.383Z,-2.65
2022-12-17T09:53:49.468Z,-2.68
2022-12-17T09:56:55.705Z,-2.52
2022-12-17T10:00:02.813Z,-2.74
2022-12-17T10:03:16.964Z,-2.62
2022-12-17T10:06:26.551Z,-2.52
2022-12-17T10:09:32.700Z,-2.38
2022-12-17T10:12:38.919Z,-2.57
2022-12-17T10:15:44.506Z,-2.30
2022-12-17T10:18:50.344Z,-2.25
2022-12-17T10:21:57.176Z,-2.36
2022-12-17T10:25:04.257Z,-2.37
2022-12-17T10:28:08.286Z,-2.22
2022-12-17T10:31:14.487Z,-2.36
2022-12-17T10:34:18.536Z,-2.43
2022-12-17T10:37:25.096Z,-2.34
2022-12-17T10:40:39.090Z,-2.54
2022-12-17T10:43:45.939Z,-2.44
2022-12-17T10:46:52.973Z,-2.55
2022-12-17T10:49:58.561Z,-2.27
2022-12-17T10:53:04.299Z,-2.38
2022-12-17T10:56:11.364Z,-2.53
2022-12-17T10:59:15.487Z,-2.17
2022-12-17T11:02:21.635Z,-2.29
2022-12-17T11:05:33.197Z,-2.10
2022-12-17T11:08:38.659Z,-2.16
2022-12-17T11:11:44.128Z,-2.22
2022-12-17T11:14:50.772Z,-2.48
2022-12-17T11:17:58.939Z,-2.30
2022-12-17T11:21:09.331Z,-2.21
2022-12-17T11:24:22.041Z,-2.22
2022-12-17T11:27:30.282Z,-2.14
2022-12-17T11:30:35.906Z,-2.12
2022-12-17T11:33:48.570Z,-2.30
2022-12-17T11:36:59.913Z,-2.27
2022-12-17T11:40:13.204Z,-2.30
2022-12-17T11:43:21.379Z,-1.99
2022-12-17T11:46:37.662Z,-1.84
2022-12-17T11:49:54.529Z,-1.89
2022-12-17T11:53:06.774Z,-2.03
2022-12-17T11:56:21.272Z,-2.06
2022-12-17T11:59:32.940Z,-2.02
2022-12-17T12:02:53.861Z,-2.00
2022-12-17T12:06:08.590Z,-2.06
2022-12-17T12:09:25.786Z,-2.26
2022-12-17T12:12:38.787Z,-2.04
2022-12-17T12:15:55.112Z,-2.03
2022-12-17T12:19:09.741Z,-2.11
2022-12-17T12:22:30.974Z,-2.19
2022-12-17T12:25:44.842Z,-2.22
2022-12-17T12:28:56.355Z,-2.10
2022-12-17T12:32:09.077Z,-2.04
2022-12-17T12:35:17.521Z,-2.00
2022-12-17T12:38:36.157Z,-2.24
2022-12-17T12:41:53.192Z,-2.11
2022-12-17T12:45:06.298Z,-2.18
2022-12-17T12:48:16.443Z,-2.12
2022-12-17T12:51:33.943Z,-2.09
2022-12-17T12:54:47.415Z,-2.20
2022-12-17T12:57:53.738Z,-2.21
2022-12-17T13:01:10.216Z,-2.18
2022-12-17T13:04:16.394Z,-2.23
2022-12-17T13:07:03.057Z,-2.28
2022-12-17T13:09:53.423Z,-2.23
2022-12-17T13:12:46.669Z,-2.16
2022-12-17T13:15:39.098Z,-2.10
2022-12-17T13:18:33.334Z,-1.99
2022-12-17T13:21:29.726Z,-1.96
2022-12-17T13:24:28.000Z,-2.04
2022-12-17T13:27:32.119Z,-2.11
2022-12-17T13:30:35.709Z,-2.15
2022-12-17T13:33:32.234Z,-2.28
2022-12-17T13:36:24.730Z,-2.39
2022-12-17T13:39:27.154Z,-2.33
2022-12-17T13:42:20.040Z,-2.57
2022-12-17T13:45:15.752Z,-2.46
2022-12-17T13:48:02.509Z,-2.72
2022-12-17T13:50:56.291Z,-2.90
2022-12-17T13:53:53.972Z,-2.70
2022-12-17T13:56:41.067Z,-2.51
2022-12-17T13:59:29.979Z,-2.58
2022-12-17T14:02:26.913Z,-2.70
2022-12-17T14:05:24.925Z,-2.67
2022-12-17T14:08:17.492Z,-2.57
2022-12-17T14:11:22.358Z,-2.58
2022-12-17T14:14:31.648Z,-2.65
2022-12-17T14:17:20.941Z,-2.61
2022-12-17T14:20:14.649Z,-2.68
2022-12-17T14:23:04.510Z,-2.75
2022-12-17T14:25:51.728Z,-2.75
2022-12-17T14:28:50.270Z,-2.92
2022-12-17T14:31:37.654Z,-3.13
2022-12-17T14:34:24.661Z,-3.17
2022-12-17T14:37:20.799Z,-3.52
2022-12-17T14:40:09.148Z,-3.32
2022-12-17T14:43:01.051Z,-3.17
2022-12-17T14:46:24.292Z,-3.04
2022-12-17T14:49:18.622Z,-2.92
2022-12-17T14:52:14.381Z,-2.99
2022-12-17T14:55:02.718Z,-2.97
2022-12-17T14:57:49.879Z,-2.93
2022-12-17T15:00:39.401Z,-2.99
2022-12-17T15:03:28.989Z,-3.01
2022-12-17T15:06:19.443Z,-3.00
2022-12-17T15:09:06.388Z,-2.98
2022-12-17T15:11:54.711Z,-2.96
2022-12-17T15:14:41.149Z,-2.95
2022-12-17T15:17:27.960Z,-3.03
2022-12-17T15:20:18.470Z,-3.11
2022-12-17T15:23:05.412Z,-3.03
2022-12-17T15:25:53.176Z,-3.17
2022-12-17T15:28:40.983Z,-3.23
2022-12-17T15:31:33.564Z,-3.24
2022-12-17T15:34:21.824Z,-3.25
2022-12-17T15:37:08.559Z,-3.34
2022-12-17T15:39:56.447Z,-3.32
2022-12-17T15:43:04.645Z,-3.34
2022-12-17T15:45:54.567Z,-3.34
2022-12-17T15:48:48.163Z,-3.46
2022-12-17T15:51:36.697Z,-3.23
2022-12-17T15:54:23.460Z,-3.50
2022-12-17T15:57:15.387Z,-3.49
2022-12-17T16:00:06.164Z,-3.65
2022-12-17T16:02:54.639Z,-3.74
2022-12-17T16:05:41.628Z,-3.68
2022-12-17T16:08:28.516Z,-3.48
2022-12-17T16:11:16.204Z,-3.59
2022-12-17T16:14:02.618Z,-3.56
2022-12-17T16:16:49.409Z,-3.44
2022-12-17T16:19:37.794Z,-3.42
2022-12-17T16:22:24.517Z,-3.40
2022-12-17T16:25:11.471Z,-3.40
2022-12-17T16:27:58.411Z,-3.64
2022-12-17T16:30:45.176Z,-3.75
2022-12-17T16:33:35.789Z,-3.98
2022-12-17T16:36:24.125Z,-4.05
2022-12-17T16:39:16.383Z,-3.98
2022-12-17T16:42:03.280Z,-4.14
2022-12-17T16:44:50.283Z,-3.74
2022-12-17T16:47:37.103Z,-3.84
2022-12-17T16:50:25.015Z,-3.81
2022-12-17T16:53:13.649Z,-3.97
2022-12-17T16:56:00.367Z,-3.85
2022-12-17T16:58:47.406Z,-3.94
2022-12-17T17:01:34.078Z,-4.09
2022-12-17T17:04:23.437Z,-4.03
2022-12-17T17:07:10.171Z,-3.84
2022-12-17T17:09:58.879Z,-3.83
2022-12-17T17:12:45.906Z,-3.76
2022-12-17T17:15:33.305Z,-3.87
2022-12-17T17:18:24.764Z,-3.84
2022-12-17T17:21:18.050Z,-3.85
2022-12-17T17:24:09.979Z,-4.12
2022-12-17T17:26:58.150Z,-3.88
2022-12-17T17:29:44.940Z,-3.79
2022-12-17T17:32:32.374Z,-3.90
2022-12-17T17:35:18.977Z,-4.08
2022-12-17T17:38:05.763Z,-3.91
2022-12-17T17:40:57.620Z,-3.99
2022-12-17T17:43:46.151Z,-3.98
2022-12-17T17:46:33.922Z,-3.97
2022-12-17T17:49:21.384Z,-4.05
2022-12-17T17:52:09.986Z,-3.91
2022-12-17T17:54:57.767Z,-3.79
2022-12-17T17:57:44.579Z,-3.79
2022-12-17T18:00:32.825Z,-3.80
2022-12-17T18:03:20.405Z,-4.00
2022-12-17T18:06:09.294Z,-4.01
2022-12-17T18:08:57.182Z,-3.98
2022-12-17T18:11:45.507Z,-4.04
2022-12-17T18:14:37.480Z,-4.08
2022-12-17T18:17:29.727Z,-3.93
2022-12-17T18:20:17.167Z,-4.07
2022-12-17T18:23:03.870Z,-4.10
2022-12-17T18:25:50.651Z,-4.01
2022-12-17T18:28:38.518Z,-4.23
2022-12-17T18:31:27.500Z,-4.17
2022-12-17T18:34:19.059Z,-4.31
2022-12-17T18:37:06.375Z,-4.16
2022-12-17T18:39:52.889Z,-4.32
2022-12-17T18:42:57.048Z,-4.09
2022-12-17T18:45:45.377Z,-3.96
2022-12-17T18:48:32.144Z,-4.06
2022-12-17T18:51:21.782Z,-4.08
2022-12-17T18:54:09.310Z,-4.11
2022-12-17T18:57:01.932Z,-3.94
2022-12-17T18:59:50.191Z,-4.00
2022-12-17T19:02:37.307Z,-3.78
2022-12-17T19:05:24.012Z,-3.92
2022-12-17T19:08:12.219Z,-3.87
2022-12-17T19:11:05.453Z,-3.86
2022-12-17T19:13:52.381Z,-3.83
2022-12-17T19:16:39.351Z,-3.94
2022-12-17T19:19:26.279Z,-3.73
2022-12-17T19:22:13.453Z,-3.99
2022-12-17T19:25:01.727Z,-4.01
2022-12-17T19:27:48.340Z,-4.04
2022-12-17T19:30:35.169Z,-4.01
2022-12-17T19:33:21.956Z,-3.91
2022-12-17T19:36:12.077Z,-3.94
2022-12-17T19:39:01.487Z,-3.76
2022-12-17T19:41:51.342Z,-3.74
2022-12-17T19:44:38.032Z,-3.72
2022-12-17T19:47:25.273Z,-3.81
2022-12-17T19:50:12.025Z,-3.74
2022-12-17T19:52:58.775Z,-3.78
2022-12-17T19:55:45.683Z,-3.80
2022-12-17T19:58:33.842Z,-3.84
2022-12-17T20:01:22.395Z,-3.84
2022-12-17T20:04:10.260Z,-3.98
2022-12-17T20:06:56.751Z,-3.88
2022-12-17T20:09:44.751Z,-3.91
2022-12-17T20:12:31.387Z,-4.03
2022-12-17T20:15:19.871Z,-4.06
2022-12-17T20:18:06.688Z,-4.10
2022-12-17T20:20:53.248Z,-4.06
2022-12-17T20:23:40.510Z,-4.05
2022-12-17T20:26:29.825Z,-4.10
2022-12-17T20:29:16.521Z,-4.16
2022-12-17T20:32:05.038Z,-3.97
2022-12-17T20:34:52.376Z,-4.10
2022-12-17T20:37:39.405Z,-4.10
2022-12-17T20:40:26.270Z,-4.01
2022-12-17T20:43:13.504Z,-3.90
2022-12-17T20:46:03.136Z,-3.74
2022-12-17T20:48:52.655Z,-3.88
2022-12-17T20:51:40.515Z,-3.99
2022-12-17T20:54:27.319Z,-4.00
2022-12-17T20:57:14.227Z,-4.01
2022-12-17T21:00:01.222Z,-3.87
2022-12-17T21:02:48.161Z,-4.05
2022-12-17T21:05:37.588Z,-4.16
2022-12-17T21:08:24.670Z,-4.21
2022-12-17T21:11:11.610Z,-4.01
2022-12-17T21:13:58.600Z,-4.11
2022-12-17T21:16:46.423Z,-4.17
2022-12-17T21:19:32.895Z,-4.19
2022-12-17T21:22:21.129Z,-4.19
2022-12-17T21:25:09.357Z,-3.99
2022-12-17T21:27:55.896Z,-4.13
2022-12-17T21:30:42.776Z,-4.24
2022-12-17T21:33:29.755Z,-4.22
2022-12-17T21:36:18.453Z,-4.79
2022-12-17T21:39:09.566Z,-4.31
2022-12-17T21:42:13.855Z,-4.34
2022-12-17T21:45:00.612Z,-4.28
2022-12-17T21:47:47.517Z,-4.29
2022-12-17T21:50:34.846Z,-4.50
2022-12-17T21:53:21.374Z,-4.54
2022-12-17T21:56:11.603Z,-4.45
2022-12-17T21:59:00.397Z,-4.30
2022-12-17T22:01:47.448Z,-4.42
2022-12-17T22:04:34.199Z,-4.47
2022-12-17T22:07:23.448Z,-4.60
2022-12-17T22:10:27.261Z,-4.47
2022-12-17T22:13:37.309Z,-4.67
2022-12-17T22:16:24.593Z,-4.75
2022-12-17T22:19:13.527Z,-4.71
2022-12-17T22:22:01.468Z,-4.66
2022-12-17T22:24:48.245Z,-4.73
2022-12-17T22:27:35.263Z,-4.36
2022-12-17T22:30:41.037Z,-4.19
2022-12-17T22:33:41.239Z,-4.36
2022-12-17T22:38:51.376Z,-4.24
2022-12-17T22:41:23.241Z,-4.39
2022-12-17T22:44:42.468Z,-4.48
2022-12-17T22:46:19.864Z,-4.40
2022-12-17T22:49:08.250Z,-4.52
2022-12-17T22:51:58.505Z,-4.48
2022-12-17T22:54:50.989Z,-4.58
2022-12-17T22:57:38.875Z,-4.62
2022-12-17T23:00:31.561Z,-4.65
2022-12-17T23:03:22.873Z,-4.69
2022-12-17T23:06:15.262Z,-4.73
2022-12-17T23:09:04.631Z,-4.73
2022-12-17T23:11:53.311Z,-4.79
2022-12-17T23:14:42.933Z,-4.83
2022-12-17T23:17:36.764Z,-4.86
2022-12-17T23:20:36.661Z,-4.94
2022-12-17T23:23:25.830Z,-4.92
2022-12-17T23:26:25.175Z,-4.89
2022-12-17T23:29:22.116Z,-4.98
2022-12-17T23:32:13.138Z,-5.00
2022-12-17T23:35:03.286Z,-5.02
2022-12-17T23:37:53.027Z,-5.03
2022-12-17T23:40:40.123Z,-5.00
2022-12-17T23:43:26.917Z,-5.01
2022-12-17T23:46:14.417Z,-5.02
2022-12-17T23:49:01.215Z,-5.17
2022-12-17T23:51:48.049Z,-5.28
2022-12-17T23:54:36.197Z,-5.30
2022-12-17T23:57:23.017Z,-5.19
